^^
Station Historical Data
Daily Summary for December 16, 2017 Units:  Both    English   Metric
« Previous Day
Next Day »
Daily Weekly Monthly Yearly Custom
  High: Low: Average:
Temperature: TemperatureF °F /  -17.8 °C 62.4 °F /  16.9 °C 79.4 °F /  26.3 °C
Dew Point: DewpointF °F /  -17.8 °C 27.7 °F /  -2.4 °C 33.5 °F /  0.8 °C
Humidity: Humidity% 12% 20%
Wind Speed: WindSpeedMPHmph /  0km/h - 2mph /  3.2km/h
Wind Gust: WindSpeedGustMPHmph /  0km/h - -
Wind- - SW
Pressure: PressureIn in /  0 hPa 29.59 in /  1001.9 hPa -
Precipitation: 0.00 in /  0 mm    
Historical Graphs
 
 
Tabular Data for December 16, 2017
Time Temperature Dew Point Pressure Wind Wind Speed Wind Gust Humidity Rainfall Rate (Hourly) solar Conditions
TemperatureF °F /  -17.8 °C DewpointF °F /  -17.8 °C PressureInin /  0hPa Calm     Humidity% HourlyPrecipInin /  0mm SolarRadiationWatts/m^2 W/m2 Conditions
00:04 71.6 °F /  22 °C 30.7 °F /  -0.7 °C 29.76in /  1007.7hPa Calm   1.0mph /  1.6km/h 22% 0.00in /  0mm 0.0 W/m2
00:09 71.2 °F /  21.8 °C 30.4 °F /  -0.9 °C 29.76in /  1007.7hPa Calm   1.0mph /  1.6km/h 22% 0.00in /  0mm 0.0 W/m2
00:15 71.1 °F /  21.7 °C 30.2 °F /  -1 °C 29.76in /  1007.7hPa Calm   1.0mph /  1.6km/h 22% 0.00in /  0mm 0.0 W/m2
00:21 70.7 °F /  21.5 °C 31.1 °F /  -0.5 °C 29.76in /  1007.7hPa Calm   1.0mph /  1.6km/h 23% 0.00in /  0mm 0.0 W/m2
00:26 70.3 °F /  21.3 °C 30.7 °F /  -0.7 °C 29.76in /  1007.7hPa Calm   1.0mph /  1.6km/h 23% 0.00in /  0mm 0.0 W/m2
00:31 70.2 °F /  21.2 °C 30.6 °F /  -0.8 °C 29.76in /  1007.7hPa Calm   1.0mph /  1.6km/h 23% 0.00in /  0mm 0.0 W/m2
00:33 70.2 °F /  21.2 °C 30.6 °F /  -0.8 °C 29.75in /  1007.3hPa Calm   1.0mph /  1.6km/h 23% 0.00in /  0mm 0.0 W/m2
00:39 69.8 °F /  21 °C 30.4 °F /  -0.9 °C 29.76in /  1007.7hPa Calm     23% 0.00in /  0mm 0.0 W/m2
00:44 69.6 °F /  20.9 °C 31.3 °F /  -0.4 °C 29.76in /  1007.7hPa Calm     24% 0.00in /  0mm 0.0 W/m2
00:50 69.3 °F /  20.7 °C 30.9 °F /  -0.6 °C 29.76in /  1007.7hPa NE 0.9mph /  1.4km/h 2.0mph /  3.2km/h 24% 0.00in /  0mm 0.0 W/m2
00:55 69.3 °F /  20.7 °C 30.9 °F /  -0.6 °C 29.75in /  1007.3hPa Calm   2.0mph /  3.2km/h 24% 0.00in /  0mm 0.0 W/m2
00:56 69.3 °F /  20.7 °C 30.9 °F /  -0.6 °C 29.75in /  1007.3hPa Calm   2.0mph /  3.2km/h 24% 0.00in /  0mm 0.0 W/m2
01:02 69.1 °F /  20.6 °C 30.7 °F /  -0.7 °C 29.75in /  1007.3hPa ESE 0.9mph /  1.4km/h 2.0mph /  3.2km/h 24% 0.00in /  0mm 0.0 W/m2
01:03 69.1 °F /  20.6 °C 30.7 °F /  -0.7 °C 29.75in /  1007.3hPa ESE 0.9mph /  1.4km/h 2.0mph /  3.2km/h 24% 0.00in /  0mm 0.0 W/m2
01:08 69.1 °F /  20.6 °C 30.7 °F /  -0.7 °C 29.75in /  1007.3hPa SE 0.9mph /  1.4km/h 3.0mph /  4.8km/h 24% 0.00in /  0mm 0.0 W/m2
01:13 69.1 °F /  20.6 °C 30.7 °F /  -0.7 °C 29.75in /  1007.3hPa Calm   2.0mph /  3.2km/h 24% 0.00in /  0mm 0.0 W/m2
01:19 68.7 °F /  20.4 °C 30.4 °F /  -0.9 °C 29.75in /  1007.3hPa Calm   3.0mph /  4.8km/h 24% 0.00in /  0mm 0.0 W/m2
01:25 68.5 °F /  20.3 °C 30.4 °F /  -0.9 °C 29.75in /  1007.3hPa Calm     24% 0.00in /  0mm 0.0 W/m2
01:30 68.4 °F /  20.2 °C 31.1 °F /  -0.5 °C 29.75in /  1007.3hPa Calm   1.0mph /  1.6km/h 25% 0.00in /  0mm 0.0 W/m2
01:36 68.0 °F /  20 °C 30.9 °F /  -0.6 °C 29.75in /  1007.3hPa Calm     25% 0.00in /  0mm 0.0 W/m2
01:40 67.8 °F /  19.9 °C 31.6 °F /  -0.2 °C 29.75in /  1007.3hPa Calm   1.0mph /  1.6km/h 26% 0.00in /  0mm 0.0 W/m2
01:42 67.8 °F /  19.9 °C 31.6 °F /  -0.2 °C 29.74in /  1007hPa Calm   1.0mph /  1.6km/h 26% 0.00in /  0mm 0.0 W/m2
01:47 67.6 °F /  19.8 °C 31.5 °F /  -0.3 °C 29.74in /  1007hPa Calm   1.0mph /  1.6km/h 26% 0.00in /  0mm 0.0 W/m2
01:48 67.6 °F /  19.8 °C 31.5 °F /  -0.3 °C 29.74in /  1007hPa Calm   1.0mph /  1.6km/h 26% 0.00in /  0mm 0.0 W/m2
01:49 67.5 °F /  19.7 °C 31.5 °F /  -0.3 °C 29.74in /  1007hPa Calm     26% 0.00in /  0mm 0.0 W/m2
01:54 67.5 °F /  19.7 °C 32.4 °F /  0.2 °C 29.74in /  1007hPa Calm   1.0mph /  1.6km/h 27% 0.00in /  0mm 0.0 W/m2
02:00 67.3 °F /  19.6 °C 32.2 °F /  0.1 °C 29.74in /  1007hPa Calm     27% 0.00in /  0mm 0.0 W/m2
02:05 66.9 °F /  19.4 °C 31.8 °F /  -0.1 °C 29.74in /  1007hPa Calm   1.0mph /  1.6km/h 27% 0.00in /  0mm 0.0 W/m2
02:08 66.7 °F /  19.3 °C 31.6 °F /  -0.2 °C 29.74in /  1007hPa SSE 2.9mph /  4.7km/h 3.0mph /  4.8km/h 27% 0.00in /  0mm 0.0 W/m2
02:13 66.7 °F /  19.3 °C 31.6 °F /  -0.2 °C 29.73in /  1006.7hPa Calm     27% 0.00in /  0mm 0.0 W/m2
02:18 66.6 °F /  19.2 °C 31.5 °F /  -0.3 °C 29.73in /  1006.7hPa SE 0.9mph /  1.4km/h 2.0mph /  3.2km/h 27% 0.00in /  0mm 0.0 W/m2
02:24 66.6 °F /  19.2 °C 31.5 °F /  -0.3 °C 29.73in /  1006.7hPa Calm     27% 0.00in /  0mm 0.0 W/m2
02:29 66.4 °F /  19.1 °C 32.4 °F /  0.2 °C 29.73in /  1006.7hPa Calm     28% 0.00in /  0mm 0.0 W/m2
02:34 66.0 °F /  18.9 °C 32.0 °F /  0 °C 29.73in /  1006.7hPa SE 2.0mph /  3.2km/h 2.0mph /  3.2km/h 28% 0.00in /  0mm 0.0 W/m2
02:35 66.0 °F /  18.9 °C 32.0 °F /  0 °C 29.73in /  1006.7hPa ESE 0.9mph /  1.4km/h 3.0mph /  4.8km/h 28% 0.00in /  0mm 0.0 W/m2
02:40 65.8 °F /  18.8 °C 31.8 °F /  -0.1 °C 29.73in /  1006.7hPa East 0.9mph /  1.4km/h 1.0mph /  1.6km/h 28% 0.00in /  0mm 0.0 W/m2
02:46 65.7 °F /  18.7 °C 31.6 °F /  -0.2 °C 29.72in /  1006.3hPa Calm   2.0mph /  3.2km/h 28% 0.00in /  0mm 0.0 W/m2
02:51 65.5 °F /  18.6 °C 31.5 °F /  -0.3 °C 29.72in /  1006.3hPa Calm   2.0mph /  3.2km/h 28% 0.00in /  0mm 0.0 W/m2
02:56 65.5 °F /  18.6 °C 31.5 °F /  -0.3 °C 29.72in /  1006.3hPa Calm   2.0mph /  3.2km/h 28% 0.00in /  0mm 0.0 W/m2
03:00 65.5 °F /  18.6 °C 31.5 °F /  -0.3 °C 29.72in /  1006.3hPa Calm   2.0mph /  3.2km/h 28% 0.00in /  0mm 0.0 W/m2
03:06 65.5 °F /  18.6 °C 31.5 °F /  -0.3 °C 29.72in /  1006.3hPa Calm     28% 0.00in /  0mm 0.0 W/m2
03:10 65.5 °F /  18.6 °C 31.5 °F /  -0.3 °C 29.71in /  1006hPa Calm     28% 0.00in /  0mm 0.0 W/m2
03:15 65.3 °F /  18.5 °C 31.3 °F /  -0.4 °C 29.71in /  1006hPa Calm   1.0mph /  1.6km/h 28% 0.00in /  0mm 0.0 W/m2
03:20 65.1 °F /  18.4 °C 32.0 °F /  0 °C 29.71in /  1006hPa Calm   1.0mph /  1.6km/h 29% 0.00in /  0mm 0.0 W/m2
03:25 65.1 °F /  18.4 °C 32.0 °F /  0 °C 29.71in /  1006hPa Calm     29% 0.00in /  0mm 0.0 W/m2
03:30 64.9 °F /  18.3 °C 32.0 °F /  0 °C 29.72in /  1006.3hPa Calm   1.0mph /  1.6km/h 29% 0.00in /  0mm 0.0 W/m2
03:37 64.8 °F /  18.2 °C 31.8 °F /  -0.1 °C 29.71in /  1006hPa Calm     29% 0.00in /  0mm 0.0 W/m2
03:40 64.6 °F /  18.1 °C 32.4 °F /  0.2 °C 29.71in /  1006hPa Calm     30% 0.00in /  0mm 0.0 W/m2
03:45 64.4 °F /  18 °C 32.4 °F /  0.2 °C 29.71in /  1006hPa ESE 0.9mph /  1.4km/h 2.0mph /  3.2km/h 30% 0.00in /  0mm 0.0 W/m2
03:51 64.0 °F /  17.8 °C 31.1 °F /  -0.5 °C 29.71in /  1006hPa ESE 0.9mph /  1.4km/h 3.0mph /  4.8km/h 29% 0.00in /  0mm 0.0 W/m2
03:56 63.9 °F /  17.7 °C 31.8 °F /  -0.1 °C 29.71in /  1006hPa ESE 0.9mph /  1.4km/h 1.0mph /  1.6km/h 30% 0.00in /  0mm 0.0 W/m2
04:01 63.9 °F /  17.7 °C 31.8 °F /  -0.1 °C 29.71in /  1006hPa Calm     30% 0.00in /  0mm 0.0 W/m2
04:07 63.7 °F /  17.6 °C 31.6 °F /  -0.2 °C 29.71in /  1006hPa ESE 2.0mph /  3.2km/h 3.0mph /  4.8km/h 30% 0.00in /  0mm 0.0 W/m2
04:12 63.7 °F /  17.6 °C 31.6 °F /  -0.2 °C 29.71in /  1006hPa East 0.9mph /  1.4km/h 3.0mph /  4.8km/h 30% 0.00in /  0mm 0.0 W/m2
04:17 63.7 °F /  17.6 °C 31.6 °F /  -0.2 °C 29.71in /  1006hPa Calm   3.0mph /  4.8km/h 30% 0.00in /  0mm 0.0 W/m2
04:22 63.5 °F /  17.5 °C 30.7 °F /  -0.7 °C 29.70in /  1005.6hPa Calm   2.0mph /  3.2km/h 29% 0.00in /  0mm 0.0 W/m2
04:27 63.5 °F /  17.5 °C 30.7 °F /  -0.7 °C 29.70in /  1005.6hPa East 0.9mph /  1.4km/h 2.0mph /  3.2km/h 29% 0.00in /  0mm 0.0 W/m2
04:29 63.5 °F /  17.5 °C 30.7 °F /  -0.7 °C 29.71in /  1006hPa Calm   1.0mph /  1.6km/h 29% 0.00in /  0mm 0.0 W/m2
04:34 63.5 °F /  17.5 °C 30.7 °F /  -0.7 °C 29.71in /  1006hPa Calm   2.0mph /  3.2km/h 29% 0.00in /  0mm 0.0 W/m2
04:39 63.5 °F /  17.5 °C 30.7 °F /  -0.7 °C 29.70in /  1005.6hPa NE 2.9mph /  4.7km/h 4.0mph /  6.4km/h 29% 0.00in /  0mm 0.0 W/m2
04:44 63.7 °F /  17.6 °C 30.7 °F /  -0.7 °C 29.70in /  1005.6hPa Calm   2.0mph /  3.2km/h 29% 0.00in /  0mm 0.0 W/m2
04:49 63.7 °F /  17.6 °C 30.7 °F /  -0.7 °C 29.71in /  1006hPa NNE 2.0mph /  3.2km/h 3.0mph /  4.8km/h 29% 0.00in /  0mm 0.0 W/m2
04:55 63.7 °F /  17.6 °C 30.7 °F /  -0.7 °C 29.70in /  1005.6hPa ENE 0.9mph /  1.4km/h 1.0mph /  1.6km/h 29% 0.00in /  0mm 0.0 W/m2
05:01 63.7 °F /  17.6 °C 30.7 °F /  -0.7 °C 29.70in /  1005.6hPa Calm     29% 0.00in /  0mm 0.0 W/m2
05:02 63.7 °F /  17.6 °C 30.7 °F /  -0.7 °C 29.70in /  1005.6hPa Calm     29% 0.00in /  0mm 0.0 W/m2
05:07 63.3 °F /  17.4 °C 30.6 °F /  -0.8 °C 29.70in /  1005.6hPa East 0.9mph /  1.4km/h 2.0mph /  3.2km/h 29% 0.00in /  0mm 0.0 W/m2
05:10 63.3 °F /  17.4 °C 30.6 °F /  -0.8 °C 29.70in /  1005.6hPa Calm   2.0mph /  3.2km/h 29% 0.00in /  0mm 0.0 W/m2
05:16 63.1 °F /  17.3 °C 30.4 °F /  -0.9 °C 29.70in /  1005.6hPa Calm     29% 0.00in /  0mm 0.0 W/m2
05:21 63.1 °F /  17.3 °C 31.3 °F /  -0.4 °C 29.70in /  1005.6hPa Calm     30% 0.00in /  0mm 0.0 W/m2
05:24 63.0 °F /  17.2 °C 31.1 °F /  -0.5 °C 29.70in /  1005.6hPa Calm     30% 0.00in /  0mm 0.0 W/m2
05:29 62.8 °F /  17.1 °C 30.0 °F /  -1.1 °C 29.70in /  1005.6hPa Calm   1.0mph /  1.6km/h 29% 0.00in /  0mm 0.0 W/m2
05:32 62.8 °F /  17.1 °C 30.9 °F /  -0.6 °C 29.70in /  1005.6hPa SE 0.9mph /  1.4km/h 1.0mph /  1.6km/h 30% 0.00in /  0mm 0.0 W/m2
05:37 62.8 °F /  17.1 °C 30.9 °F /  -0.6 °C 29.70in /  1005.6hPa ENE 2.0mph /  3.2km/h 2.0mph /  3.2km/h 30% 0.00in /  0mm 0.0 W/m2
05:42 62.8 °F /  17.1 °C 30.9 °F /  -0.6 °C 29.70in /  1005.6hPa Calm   2.0mph /  3.2km/h 30% 0.00in /  0mm 0.0 W/m2
05:43 62.8 °F /  17.1 °C 30.9 °F /  -0.6 °C 29.70in /  1005.6hPa ENE 2.0mph /  3.2km/h 2.0mph /  3.2km/h 30% 0.00in /  0mm 0.0 W/m2
05:49 62.8 °F /  17.1 °C 30.9 °F /  -0.6 °C 29.70in /  1005.6hPa Calm   1.0mph /  1.6km/h 30% 0.00in /  0mm 0.0 W/m2
05:54 62.8 °F /  17.1 °C 30.0 °F /  -1.1 °C 29.70in /  1005.6hPa Calm   1.0mph /  1.6km/h 29% 0.00in /  0mm 0.0 W/m2
05:59 62.6 °F /  17 °C 30.7 °F /  -0.7 °C 29.70in /  1005.6hPa East 0.9mph /  1.4km/h 3.0mph /  4.8km/h 30% 0.00in /  0mm 0.0 W/m2
06:04 62.4 °F /  16.9 °C 30.6 °F /  -0.8 °C 29.71in /  1006hPa ENE 2.0mph /  3.2km/h 4.0mph /  6.4km/h 30% 0.00in /  0mm 0.0 W/m2
06:09 62.4 °F /  16.9 °C 30.6 °F /  -0.8 °C 29.71in /  1006hPa East 2.9mph /  4.7km/h 4.0mph /  6.4km/h 30% 0.00in /  0mm 5.0 W/m2
06:14 62.8 °F /  17.1 °C 30.9 °F /  -0.6 °C 29.71in /  1006hPa Calm   4.0mph /  6.4km/h 30% 0.00in /  0mm 7.0 W/m2
06:19 63.0 °F /  17.2 °C 31.1 °F /  -0.5 °C 29.71in /  1006hPa Calm   3.0mph /  4.8km/h 30% 0.00in /  0mm 9.0 W/m2
06:24 63.0 °F /  17.2 °C 31.1 °F /  -0.5 °C 29.71in /  1006hPa Calm   2.0mph /  3.2km/h 30% 0.00in /  0mm 11.0 W/m2
06:30 63.0 °F /  17.2 °C 31.1 °F /  -0.5 °C 29.71in /  1006hPa Calm   2.0mph /  3.2km/h 30% 0.00in /  0mm 12.0 W/m2
06:33 63.0 °F /  17.2 °C 31.1 °F /  -0.5 °C 29.71in /  1006hPa Calm   2.0mph /  3.2km/h 30% 0.00in /  0mm 14.0 W/m2
06:38 63.0 °F /  17.2 °C 31.1 °F /  -0.5 °C 29.71in /  1006hPa Calm   2.0mph /  3.2km/h 30% 0.00in /  0mm 16.0 W/m2
06:44 63.0 °F /  17.2 °C 31.1 °F /  -0.5 °C 29.72in /  1006.3hPa Calm   4.0mph /  6.4km/h 30% 0.00in /  0mm 16.0 W/m2
06:49 63.1 °F /  17.3 °C 31.3 °F /  -0.4 °C 29.72in /  1006.3hPa SSE 2.0mph /  3.2km/h 2.0mph /  3.2km/h 30% 0.00in /  0mm 18.0 W/m2
06:54 63.5 °F /  17.5 °C 30.7 °F /  -0.7 °C 29.72in /  1006.3hPa ESE 2.0mph /  3.2km/h 4.0mph /  6.4km/h 29% 0.00in /  0mm 19.0 W/m2
06:59 63.9 °F /  17.7 °C 30.9 °F /  -0.6 °C 29.72in /  1006.3hPa Calm   3.0mph /  4.8km/h 29% 0.00in /  0mm 19.0 W/m2
07:04 64.2 °F /  17.9 °C 31.3 °F /  -0.4 °C 29.72in /  1006.3hPa ESE 0.9mph /  1.4km/h 3.0mph /  4.8km/h 29% 0.00in /  0mm 21.0 W/m2
07:09 64.8 °F /  18.2 °C 31.8 °F /  -0.1 °C 29.72in /  1006.3hPa SSE 0.9mph /  1.4km/h 1.0mph /  1.6km/h 29% 0.00in /  0mm 23.0 W/m2
07:10 64.8 °F /  18.2 °C 31.8 °F /  -0.1 °C 29.72in /  1006.3hPa Calm   2.0mph /  3.2km/h 29% 0.00in /  0mm 23.0 W/m2
07:15 65.5 °F /  18.6 °C 32.4 °F /  0.2 °C 29.72in /  1006.3hPa SE 0.9mph /  1.4km/h 3.0mph /  4.8km/h 29% 0.00in /  0mm 23.0 W/m2
07:16 65.7 °F /  18.7 °C 32.5 °F /  0.3 °C 29.72in /  1006.3hPa SE 0.9mph /  1.4km/h 2.0mph /  3.2km/h 29% 0.00in /  0mm 23.0 W/m2
07:21 66.2 °F /  19 °C 33.1 °F /  0.6 °C 29.72in /  1006.3hPa ENE 0.9mph /  1.4km/h 2.0mph /  3.2km/h 29% 0.00in /  0mm 25.0 W/m2
07:26 66.7 °F /  19.3 °C 34.3 °F /  1.3 °C 29.72in /  1006.3hPa Calm   1.0mph /  1.6km/h 30% 0.00in /  0mm 25.0 W/m2
07:32 67.5 °F /  19.7 °C 34.2 °F /  1.2 °C 29.72in /  1006.3hPa NE 0.9mph /  1.4km/h 3.0mph /  4.8km/h 29% 0.00in /  0mm 47.0 W/m2
07:36 68.2 °F /  20.1 °C 34.7 °F /  1.5 °C 29.72in /  1006.3hPa East 0.9mph /  1.4km/h 3.0mph /  4.8km/h 29% 0.00in /  0mm 72.0 W/m2
07:41 69.1 °F /  20.6 °C 36.3 °F /  2.4 °C 29.73in /  1006.7hPa East 2.9mph /  4.7km/h 7.0mph /  11.3km/h 30% 0.00in /  0mm 202.0 W/m2
07:46 70.3 °F /  21.3 °C 37.4 °F /  3 °C 29.73in /  1006.7hPa ENE 4.9mph /  7.9km/h 6.0mph /  9.7km/h 30% 0.00in /  0mm 371.0 W/m2
07:51 72.1 °F /  22.3 °C 38.1 °F /  3.4 °C 29.72in /  1006.3hPa North 0.9mph /  1.4km/h 5.0mph /  8km/h 29% 0.00in /  0mm 396.0 W/m2
07:56 73.8 °F /  23.2 °C 39.6 °F /  4.2 °C 29.72in /  1006.3hPa ENE 4.9mph /  7.9km/h 6.0mph /  9.7km/h 29% 0.00in /  0mm 417.0 W/m2
08:01 75.4 °F /  24.1 °C 40.1 °F /  4.5 °C 29.72in /  1006.3hPa ENE 2.0mph /  3.2km/h 5.0mph /  8km/h 28% 0.00in /  0mm 436.0 W/m2
08:06 76.5 °F /  24.7 °C 39.9 °F /  4.4 °C 29.72in /  1006.3hPa Calm   2.0mph /  3.2km/h 27% 0.00in /  0mm 457.0 W/m2
08:12 77.2 °F /  25.1 °C 40.6 °F /  4.8 °C 29.72in /  1006.3hPa ENE 4.0mph /  6.4km/h 7.0mph /  11.3km/h 27% 0.00in /  0mm 476.0 W/m2
08:17 77.9 °F /  25.5 °C 41.2 °F /  5.1 °C 29.72in /  1006.3hPa Calm   5.0mph /  8km/h 27% 0.00in /  0mm 497.0 W/m2
08:21 78.4 °F /  25.8 °C 41.7 °F /  5.4 °C 29.72in /  1006.3hPa Calm   5.0mph /  8km/h 27% 0.00in /  0mm 510.0 W/m2
08:26 79.3 °F /  26.3 °C 40.5 °F /  4.7 °C 29.72in /  1006.3hPa Calm   5.0mph /  8km/h 25% 0.00in /  0mm 531.0 W/m2
08:31 80.1 °F /  26.7 °C 40.1 °F /  4.5 °C 29.72in /  1006.3hPa SE 2.0mph /  3.2km/h 3.0mph /  4.8km/h 24% 0.00in /  0mm 552.0 W/m2
08:36 80.6 °F /  27 °C 40.5 °F /  4.7 °C 29.72in /  1006.3hPa NNE 2.0mph /  3.2km/h 5.0mph /  8km/h 24% 0.00in /  0mm 571.0 W/m2
08:38 81.0 °F /  27.2 °C 39.7 °F /  4.3 °C 29.72in /  1006.3hPa NNE 0.9mph /  1.4km/h 4.0mph /  6.4km/h 23% 0.00in /  0mm 580.0 W/m2
08:43 81.5 °F /  27.5 °C 36.5 °F /  2.5 °C 29.72in /  1006.3hPa NE 2.0mph /  3.2km/h 5.0mph /  8km/h 20% 0.00in /  0mm 598.0 W/m2
08:48 81.9 °F /  27.7 °C 34.2 °F /  1.2 °C 29.72in /  1006.3hPa Calm   2.0mph /  3.2km/h 18% 0.00in /  0mm 617.0 W/m2
08:53 82.2 °F /  27.9 °C 34.5 °F /  1.4 °C 29.72in /  1006.3hPa ENE 2.9mph /  4.7km/h 7.0mph /  11.3km/h 18% 0.00in /  0mm 635.0 W/m2
08:54 82.4 °F /  28 °C 36.0 °F /  2.2 °C 29.72in /  1006.3hPa NNE 4.0mph /  6.4km/h 4.0mph /  6.4km/h 19% 0.00in /  0mm 636.0 W/m2
09:00 83.1 °F /  28.4 °C 36.7 °F /  2.6 °C 29.72in /  1006.3hPa NNW 2.9mph /  4.7km/h 6.0mph /  9.7km/h 19% 0.00in /  0mm 657.0 W/m2
09:06 83.8 °F /  28.8 °C 34.3 °F /  1.3 °C 29.72in /  1006.3hPa NE 2.0mph /  3.2km/h 2.0mph /  3.2km/h 17% 0.00in /  0mm 680.0 W/m2
09:11 84.2 °F /  29 °C 34.7 °F /  1.5 °C 29.72in /  1006.3hPa NNW 2.9mph /  4.7km/h 5.0mph /  8km/h 17% 0.00in /  0mm 671.0 W/m2
09:16 84.6 °F /  29.2 °C 31.8 °F /  -0.1 °C 29.72in /  1006.3hPa Calm   4.0mph /  6.4km/h 15% 0.00in /  0mm 686.0 W/m2
09:21 84.7 °F /  29.3 °C 33.6 °F /  0.9 °C 29.72in /  1006.3hPa NNE 2.0mph /  3.2km/h 3.0mph /  4.8km/h 16% 0.00in /  0mm 724.0 W/m2
09:23 84.7 °F /  29.3 °C 33.6 °F /  0.9 °C 29.72in /  1006.3hPa SSE 2.0mph /  3.2km/h 6.0mph /  9.7km/h 16% 0.00in /  0mm 719.0 W/m2
09:25 84.7 °F /  29.3 °C 33.6 °F /  0.9 °C 29.72in /  1006.3hPa NW 4.9mph /  7.9km/h 5.0mph /  8km/h 16% 0.00in /  0mm 698.0 W/m2
09:30 85.3 °F /  29.6 °C 32.4 °F /  0.2 °C 29.72in /  1006.3hPa NE 7.0mph /  11.3km/h 7.0mph /  11.3km/h 15% 0.00in /  0mm 758.0 W/m2
09:35 85.6 °F /  29.8 °C 30.9 °F /  -0.6 °C 29.72in /  1006.3hPa Calm   5.0mph /  8km/h 14% 0.00in /  0mm 758.0 W/m2
09:40 85.6 °F /  29.8 °C 32.7 °F /  0.4 °C 29.72in /  1006.3hPa Calm   4.0mph /  6.4km/h 15% 0.00in /  0mm 724.0 W/m2
09:46 86.4 °F /  30.2 °C 34.9 °F /  1.6 °C 29.72in /  1006.3hPa NNW 0.9mph /  1.4km/h 2.0mph /  3.2km/h 16% 0.00in /  0mm 802.0 W/m2
09:51 86.7 °F /  30.4 °C 31.8 °F /  -0.1 °C 29.72in /  1006.3hPa North 6.9mph /  11.1km/h 7.0mph /  11.3km/h 14% 0.00in /  0mm 837.0 W/m2
09:56 86.7 °F /  30.4 °C 31.8 °F /  -0.1 °C 29.72in /  1006.3hPa NNW 2.0mph /  3.2km/h 2.0mph /  3.2km/h 14% 0.00in /  0mm 833.0 W/m2
10:01 86.7 °F /  30.4 °C 31.8 °F /  -0.1 °C 29.72in /  1006.3hPa WSW 2.0mph /  3.2km/h 7.0mph /  11.3km/h 14% 0.00in /  0mm 826.0 W/m2
10:06 87.3 °F /  30.7 °C 28.4 °F /  -2 °C 29.72in /  1006.3hPa NE 2.9mph /  4.7km/h 6.0mph /  9.7km/h 12% 0.00in /  0mm 849.0 W/m2
10:11 87.4 °F /  30.8 °C 30.6 °F /  -0.8 °C 29.72in /  1006.3hPa West 2.0mph /  3.2km/h 7.0mph /  11.3km/h 13% 0.00in /  0mm 874.0 W/m2
10:16 88.0 °F /  31.1 °C 30.9 °F /  -0.6 °C 29.72in /  1006.3hPa West 0.9mph /  1.4km/h 2.0mph /  3.2km/h 13% 0.00in /  0mm 886.0 W/m2
10:21 88.0 °F /  31.1 °C 30.9 °F /  -0.6 °C 29.72in /  1006.3hPa NW 4.0mph /  6.4km/h 4.0mph /  6.4km/h 13% 0.00in /  0mm 893.0 W/m2
10:26 88.2 °F /  31.2 °C 31.1 °F /  -0.5 °C 29.72in /  1006.3hPa NW 4.9mph /  7.9km/h 5.0mph /  8km/h 13% 0.00in /  0mm 912.0 W/m2
10:33 88.5 °F /  31.4 °C 33.3 °F /  0.7 °C 29.72in /  1006.3hPa WSW 2.9mph /  4.7km/h 11.0mph /  17.7km/h 14% 0.00in /  0mm 925.0 W/m2
10:35 88.5 °F /  31.4 °C 33.3 °F /  0.7 °C 29.72in /  1006.3hPa NNW 2.9mph /  4.7km/h 8.0mph /  12.9km/h 14% 0.00in /  0mm 921.0 W/m2
10:40 88.9 °F /  31.6 °C 33.6 °F /  0.9 °C 29.72in /  1006.3hPa NNW 0.9mph /  1.4km/h 8.0mph /  12.9km/h 14% 0.00in /  0mm 944.0 W/m2
10:45 88.9 °F /  31.6 °C 33.6 °F /  0.9 °C 29.72in /  1006.3hPa WNW 2.0mph /  3.2km/h 6.0mph /  9.7km/h 14% 0.00in /  0mm 953.0 W/m2
10:50 88.9 °F /  31.6 °C 33.6 °F /  0.9 °C 29.72in /  1006.3hPa WSW 2.0mph /  3.2km/h 5.0mph /  8km/h 14% 0.00in /  0mm 963.0 W/m2
10:55 88.9 °F /  31.6 °C 31.6 °F /  -0.2 °C 29.72in /  1006.3hPa NNE 6.0mph /  9.7km/h 9.0mph /  14.5km/h 13% 0.00in /  0mm 976.0 W/m2
11:00 89.4 °F /  31.9 °C 34.0 °F /  1.1 °C 29.71in /  1006hPa NW 2.9mph /  4.7km/h 5.0mph /  8km/h 14% 0.00in /  0mm 981.0 W/m2
11:05 89.8 °F /  32.1 °C 32.4 °F /  0.2 °C 29.71in /  1006hPa North 8.1mph /  13km/h 9.0mph /  14.5km/h 13% 0.00in /  0mm 991.0 W/m2
11:10 89.4 °F /  31.9 °C 34.0 °F /  1.1 °C 29.71in /  1006hPa ENE 4.9mph /  7.9km/h 8.0mph /  12.9km/h 14% 0.00in /  0mm 998.0 W/m2
11:20 90.0 °F /  32.2 °C 32.5 °F /  0.3 °C 29.71in /  1006hPa WNW 4.0mph /  6.4km/h 8.0mph /  12.9km/h 13% 0.00in /  0mm 1014.0 W/m2
11:25 90.0 °F /  32.2 °C 32.5 °F /  0.3 °C 29.71in /  1006hPa North 6.0mph /  9.7km/h 13.0mph /  20.9km/h 13% 0.00in /  0mm 1023.0 W/m2
11:31 90.0 °F /  32.2 °C 32.5 °F /  0.3 °C 29.71in /  1006hPa North 4.0mph /  6.4km/h 8.0mph /  12.9km/h 13% 0.00in /  0mm 1023.0 W/m2
11:36 90.0 °F /  32.2 °C 30.6 °F /  -0.8 °C 29.71in /  1006hPa WNW 2.0mph /  3.2km/h 5.0mph /  8km/h 12% 0.00in /  0mm 1034.0 W/m2
11:38 90.0 °F /  32.2 °C 30.6 °F /  -0.8 °C 29.71in /  1006hPa NNW 0.9mph /  1.4km/h 5.0mph /  8km/h 12% 0.00in /  0mm 1039.0 W/m2
11:43 90.3 °F /  32.4 °C 32.9 °F /  0.5 °C 29.71in /  1006hPa North 6.9mph /  11.1km/h 9.0mph /  14.5km/h 13% 0.00in /  0mm 1039.0 W/m2
11:48 90.7 °F /  32.6 °C 33.1 °F /  0.6 °C 29.70in /  1005.6hPa ENE 4.9mph /  7.9km/h 9.0mph /  14.5km/h 13% 0.00in /  0mm 1042.0 W/m2
11:54 90.9 °F /  32.7 °C 33.3 °F /  0.7 °C 29.70in /  1005.6hPa NNW 6.9mph /  11.1km/h 11.0mph /  17.7km/h 13% 0.00in /  0mm 1048.0 W/m2
11:58 90.9 °F /  32.7 °C 33.3 °F /  0.7 °C 29.70in /  1005.6hPa North 4.9mph /  7.9km/h 11.0mph /  17.7km/h 13% 0.00in /  0mm 1051.0 W/m2
12:00 91.2 °F /  32.9 °C 35.4 °F /  1.9 °C 29.70in /  1005.6hPa WSW 2.9mph /  4.7km/h 9.0mph /  14.5km/h 14% 0.00in /  0mm 1049.0 W/m2
12:05 91.2 °F /  32.9 °C 33.4 °F /  0.8 °C 29.70in /  1005.6hPa WSW 4.0mph /  6.4km/h 8.0mph /  12.9km/h 13% 0.00in /  0mm 1056.0 W/m2
12:07 91.2 °F /  32.9 °C 33.4 °F /  0.8 °C 29.70in /  1005.6hPa WNW 2.9mph /  4.7km/h 8.0mph /  12.9km/h 13% 0.00in /  0mm 1058.0 W/m2
12:12 91.4 °F /  33 °C 35.6 °F /  2 °C 29.70in /  1005.6hPa NW 4.9mph /  7.9km/h 10.0mph /  16.1km/h 14% 0.00in /  0mm 1060.0 W/m2
12:16 91.4 °F /  33 °C 35.6 °F /  2 °C 29.70in /  1005.6hPa NW 6.0mph /  9.7km/h 9.0mph /  14.5km/h 14% 0.00in /  0mm 1062.0 W/m2
12:21 91.6 °F /  33.1 °C 35.6 °F /  2 °C 29.70in /  1005.6hPa NW 4.0mph /  6.4km/h 10.0mph /  16.1km/h 14% 0.00in /  0mm 1060.0 W/m2
12:26 91.6 °F /  33.1 °C 37.4 °F /  3 °C 29.70in /  1005.6hPa NE 0.9mph /  1.4km/h 8.0mph /  12.9km/h 15% 0.00in /  0mm 1063.0 W/m2
12:31 91.6 °F /  33.1 °C 37.4 °F /  3 °C 29.70in /  1005.6hPa North 4.0mph /  6.4km/h 9.0mph /  14.5km/h 15% 0.00in /  0mm 1060.0 W/m2
12:36 91.9 °F /  33.3 °C 37.8 °F /  3.2 °C 29.69in /  1005.3hPa West 6.0mph /  9.7km/h 8.0mph /  12.9km/h 15% 0.00in /  0mm 1060.0 W/m2
12:39 91.9 °F /  33.3 °C 37.8 °F /  3.2 °C 29.69in /  1005.3hPa NW 2.9mph /  4.7km/h 7.0mph /  11.3km/h 15% 0.00in /  0mm 1062.0 W/m2
12:44 91.9 °F /  33.3 °C 39.4 °F /  4.1 °C 29.69in /  1005.3hPa WSW 2.0mph /  3.2km/h 4.0mph /  6.4km/h 16% 0.00in /  0mm 1042.0 W/m2
12:49 92.3 °F /  33.5 °C 37.9 °F /  3.3 °C 29.69in /  1005.3hPa NNW 4.0mph /  6.4km/h 7.0mph /  11.3km/h 15% 0.00in /  0mm 1049.0 W/m2
12:53 92.7 °F /  33.7 °C 38.3 °F /  3.5 °C 29.69in /  1005.3hPa NNW 6.9mph /  11.1km/h 8.0mph /  12.9km/h 15% 0.00in /  0mm 1051.0 W/m2
12:58 92.7 °F /  33.7 °C 36.5 °F /  2.5 °C 29.69in /  1005.3hPa WNW 0.9mph /  1.4km/h 6.0mph /  9.7km/h 14% 0.00in /  0mm 1051.0 W/m2
13:03 92.7 °F /  33.7 °C 38.3 °F /  3.5 °C 29.68in /  1005hPa North 8.9mph /  14.3km/h 12.0mph /  19.3km/h 15% 0.00in /  0mm 1060.0 W/m2
13:08 92.5 °F /  33.6 °C 38.1 °F /  3.4 °C 29.68in /  1005hPa NNE 2.9mph /  4.7km/h 8.0mph /  12.9km/h 15% 0.00in /  0mm 1055.0 W/m2
13:14 92.5 °F /  33.6 °C 38.1 °F /  3.4 °C 29.67in /  1004.6hPa WNW 2.9mph /  4.7km/h 8.0mph /  12.9km/h 15% 0.00in /  0mm 1067.0 W/m2
13:18 92.1 °F /  33.4 °C 37.8 °F /  3.2 °C 29.67in /  1004.6hPa West 0.9mph /  1.4km/h 8.0mph /  12.9km/h 15% 0.00in /  0mm 1090.0 W/m2
13:23 92.5 °F /  33.6 °C 39.7 °F /  4.3 °C 29.67in /  1004.6hPa WNW 8.9mph /  14.3km/h 9.0mph /  14.5km/h 16% 0.00in /  0mm 1113.0 W/m2
13:28 92.5 °F /  33.6 °C 39.7 °F /  4.3 °C 29.67in /  1004.6hPa West 2.9mph /  4.7km/h 14.0mph /  22.5km/h 16% 0.00in /  0mm 1058.0 W/m2
13:31 92.5 °F /  33.6 °C 39.7 °F /  4.3 °C 29.67in /  1004.6hPa NW 4.0mph /  6.4km/h 10.0mph /  16.1km/h 16% 0.00in /  0mm 1046.0 W/m2
13:36 92.8 °F /  33.8 °C 40.1 °F /  4.5 °C 29.67in /  1004.6hPa NNE 8.1mph /  13km/h 14.0mph /  22.5km/h 16% 0.00in /  0mm 1051.0 W/m2
13:37 92.8 °F /  33.8 °C 40.1 °F /  4.5 °C 29.67in /  1004.6hPa NNW 4.0mph /  6.4km/h 9.0mph /  14.5km/h 16% 0.00in /  0mm 1046.0 W/m2
13:42 92.5 °F /  33.6 °C 39.7 °F /  4.3 °C 29.67in /  1004.6hPa WNW 8.1mph /  13km/h 11.0mph /  17.7km/h 16% 0.00in /  0mm 1042.0 W/m2
13:48 92.5 °F /  33.6 °C 39.7 °F /  4.3 °C 29.66in /  1004.3hPa SW 2.9mph /  4.7km/h 3.0mph /  4.8km/h 16% 0.00in /  0mm 1016.0 W/m2
13:53 91.9 °F /  33.3 °C 39.4 °F /  4.1 °C 29.66in /  1004.3hPa WNW 2.0mph /  3.2km/h 7.0mph /  11.3km/h 16% 0.00in /  0mm 666.0 W/m2
13:59 92.5 °F /  33.6 °C 39.7 °F /  4.3 °C 29.66in /  1004.3hPa WNW 4.9mph /  7.9km/h 7.0mph /  11.3km/h 16% 0.00in /  0mm 1034.0 W/m2
14:03 93.0 °F /  33.9 °C 40.3 °F /  4.6 °C 29.66in /  1004.3hPa WSW 4.9mph /  7.9km/h 6.0mph /  9.7km/h 16% 0.00in /  0mm 1037.0 W/m2
14:08 93.6 °F /  34.2 °C 39.0 °F /  3.9 °C 29.65in /  1003.9hPa West 4.9mph /  7.9km/h 11.0mph /  17.7km/h 15% 0.00in /  0mm 1025.0 W/m2
14:13 93.6 °F /  34.2 °C 39.0 °F /  3.9 °C 29.66in /  1004.3hPa WSW 0.9mph /  1.4km/h 8.0mph /  12.9km/h 15% 0.00in /  0mm 1044.0 W/m2
14:18 93.7 °F /  34.3 °C 39.2 °F /  4 °C 29.66in /  1004.3hPa NNW 10.1mph /  16.3km/h 13.0mph /  20.9km/h 15% 0.00in /  0mm 779.0 W/m2
14:23 93.6 °F /  34.2 °C 37.2 °F /  2.9 °C 29.65in /  1003.9hPa NE 2.0mph /  3.2km/h 7.0mph /  11.3km/h 14% 0.00in /  0mm 898.0 W/m2
14:28 93.0 °F /  33.9 °C 38.5 °F /  3.6 °C 29.65in /  1003.9hPa NW 2.9mph /  4.7km/h 13.0mph /  20.9km/h 15% 0.00in /  0mm 926.0 W/m2
14:29 93.0 °F /  33.9 °C 38.5 °F /  3.6 °C 29.65in /  1003.9hPa North 4.0mph /  6.4km/h 10.0mph /  16.1km/h 15% 0.00in /  0mm 951.0 W/m2
14:34 93.6 °F /  34.2 °C 37.2 °F /  2.9 °C 29.65in /  1003.9hPa NNW 4.0mph /  6.4km/h 9.0mph /  14.5km/h 14% 0.00in /  0mm 865.0 W/m2
14:39 93.6 °F /  34.2 °C 37.2 °F /  2.9 °C 29.64in /  1003.6hPa NNW 2.0mph /  3.2km/h 9.0mph /  14.5km/h 14% 0.00in /  0mm 965.0 W/m2
14:46 93.7 °F /  34.3 °C 37.4 °F /  3 °C 29.65in /  1003.9hPa West 0.9mph /  1.4km/h 9.0mph /  14.5km/h 14% 0.00in /  0mm 933.0 W/m2
14:52 93.9 °F /  34.4 °C 37.6 °F /  3.1 °C 29.64in /  1003.6hPa NNW 6.0mph /  9.7km/h 11.0mph /  17.7km/h 14% 0.00in /  0mm 854.0 W/m2
14:57 94.5 °F /  34.7 °C 37.9 °F /  3.3 °C 29.65in /  1003.9hPa NW 2.0mph /  3.2km/h 9.0mph /  14.5km/h 14% 0.00in /  0mm 919.0 W/m2
15:01 95.0 °F /  35 °C 36.5 °F /  2.5 °C 29.64in /  1003.6hPa North 2.9mph /  4.7km/h 5.0mph /  8km/h 13% 0.00in /  0mm 907.0 W/m2
15:05 95.2 °F /  35.1 °C 38.5 °F /  3.6 °C 29.64in /  1003.6hPa West 4.0mph /  6.4km/h 7.0mph /  11.3km/h 14% 0.00in /  0mm 896.0 W/m2
15:11 95.2 °F /  35.1 °C 38.5 °F /  3.6 °C 29.63in /  1003.3hPa NNW 0.9mph /  1.4km/h 8.0mph /  12.9km/h 14% 0.00in /  0mm 889.0 W/m2
15:12 95.2 °F /  35.1 °C 36.7 °F /  2.6 °C 29.63in /  1003.3hPa NW 6.9mph /  11.1km/h 11.0mph /  17.7km/h 13% 0.00in /  0mm 886.0 W/m2
15:17 95.5 °F /  35.3 °C 36.9 °F /  2.7 °C 29.63in /  1003.3hPa NNW 6.0mph /  9.7km/h 9.0mph /  14.5km/h 13% 0.00in /  0mm 870.0 W/m2
15:20 95.5 °F /  35.3 °C 36.9 °F /  2.7 °C 29.63in /  1003.3hPa NNW 2.0mph /  3.2km/h 6.0mph /  9.7km/h 13% 0.00in /  0mm 853.0 W/m2
15:25 95.5 °F /  35.3 °C 36.9 °F /  2.7 °C 29.63in /  1003.3hPa NNW 6.9mph /  11.1km/h 10.0mph /  16.1km/h 13% 0.00in /  0mm 838.0 W/m2
15:27 95.5 °F /  35.3 °C 36.9 °F /  2.7 °C 29.63in /  1003.3hPa NNE 4.0mph /  6.4km/h 10.0mph /  16.1km/h 13% 0.00in /  0mm 772.0 W/m2
15:34 95.4 °F /  35.2 °C 36.7 °F /  2.6 °C 29.63in /  1003.3hPa NW 8.1mph /  13km/h 13.0mph /  20.9km/h 13% 0.00in /  0mm 814.0 W/m2
15:39 95.2 °F /  35.1 °C 36.7 °F /  2.6 °C 29.62in /  1002.9hPa North 4.0mph /  6.4km/h 5.0mph /  8km/h 13% 0.00in /  0mm 770.0 W/m2
15:44 95.5 °F /  35.3 °C 36.9 °F /  2.7 °C 29.62in /  1002.9hPa North 2.0mph /  3.2km/h 9.0mph /  14.5km/h 13% 0.00in /  0mm 791.0 W/m2
15:47 95.7 °F /  35.4 °C 37.0 °F /  2.8 °C 29.62in /  1002.9hPa Calm   7.0mph /  11.3km/h 13% 0.00in /  0mm 817.0 W/m2
15:52 95.7 °F /  35.4 °C 37.0 °F /  2.8 °C 29.62in /  1002.9hPa WSW 2.9mph /  4.7km/h 11.0mph /  17.7km/h 13% 0.00in /  0mm 810.0 W/m2
15:57 95.5 °F /  35.3 °C 36.9 °F /  2.7 °C 29.62in /  1002.9hPa SSW 6.0mph /  9.7km/h 10.0mph /  16.1km/h 13% 0.00in /  0mm 770.0 W/m2
16:02 95.4 °F /  35.2 °C 36.7 °F /  2.6 °C 29.62in /  1002.9hPa NW 2.9mph /  4.7km/h 5.0mph /  8km/h 13% 0.00in /  0mm 744.0 W/m2
16:08 95.2 °F /  35.1 °C 36.7 °F /  2.6 °C 29.61in /  1002.6hPa West 2.9mph /  4.7km/h 10.0mph /  16.1km/h 13% 0.00in /  0mm 729.0 W/m2
16:13 95.0 °F /  35 °C 36.5 °F /  2.5 °C 29.61in /  1002.6hPa NNW 4.0mph /  6.4km/h 4.0mph /  6.4km/h 13% 0.00in /  0mm 722.0 W/m2
16:15 95.2 °F /  35.1 °C 36.7 °F /  2.6 °C 29.61in /  1002.6hPa NNW 6.9mph /  11.1km/h 8.0mph /  12.9km/h 13% 0.00in /  0mm 714.0 W/m2
16:20 94.6 °F /  34.8 °C 36.1 °F /  2.3 °C 29.61in /  1002.6hPa North 6.0mph /  9.7km/h 11.0mph /  17.7km/h 13% 0.00in /  0mm 687.0 W/m2
16:26 94.5 °F /  34.7 °C 36.0 °F /  2.2 °C 29.61in /  1002.6hPa NNE 4.9mph /  7.9km/h 11.0mph /  17.7km/h 13% 0.00in /  0mm 680.0 W/m2
16:31 94.1 °F /  34.5 °C 35.8 °F /  2.1 °C 29.61in /  1002.6hPa North 2.0mph /  3.2km/h 8.0mph /  12.9km/h 13% 0.00in /  0mm 680.0 W/m2
16:37 93.6 °F /  34.2 °C 37.2 °F /  2.9 °C 29.60in /  1002.3hPa Calm   5.0mph /  8km/h 14% 0.00in /  0mm 234.0 W/m2
16:42 93.0 °F /  33.9 °C 36.9 °F /  2.7 °C 29.60in /  1002.3hPa NW 8.1mph /  13km/h 9.0mph /  14.5km/h 14% 0.00in /  0mm 160.0 W/m2
16:46 92.5 °F /  33.6 °C 36.3 °F /  2.4 °C 29.60in /  1002.3hPa NNW 6.0mph /  9.7km/h 11.0mph /  17.7km/h 14% 0.00in /  0mm 146.0 W/m2
16:51 91.8 °F /  33.2 °C 35.8 °F /  2.1 °C 29.60in /  1002.3hPa North 4.9mph /  7.9km/h 9.0mph /  14.5km/h 14% 0.00in /  0mm 142.0 W/m2
16:56 91.2 °F /  32.9 °C 35.4 °F /  1.9 °C 29.60in /  1002.3hPa NNW 4.0mph /  6.4km/h 11.0mph /  17.7km/h 14% 0.00in /  0mm 111.0 W/m2
17:01 90.9 °F /  32.7 °C 36.9 °F /  2.7 °C 29.60in /  1002.3hPa NNW 6.0mph /  9.7km/h 6.0mph /  9.7km/h 15% 0.00in /  0mm 127.0 W/m2
17:04 90.9 °F /  32.7 °C 36.9 °F /  2.7 °C 29.60in /  1002.3hPa NW 0.9mph /  1.4km/h 5.0mph /  8km/h 15% 0.00in /  0mm 120.0 W/m2
17:09 90.9 °F /  32.7 °C 36.9 °F /  2.7 °C 29.60in /  1002.3hPa NNW 0.9mph /  1.4km/h 5.0mph /  8km/h 15% 0.00in /  0mm 135.0 W/m2
17:15 91.0 °F /  32.8 °C 37.0 °F /  2.8 °C 29.60in /  1002.3hPa North 2.9mph /  4.7km/h 9.0mph /  14.5km/h 15% 0.00in /  0mm 178.0 W/m2
17:20 90.9 °F /  32.7 °C 36.9 °F /  2.7 °C 29.60in /  1002.3hPa WNW 0.9mph /  1.4km/h 7.0mph /  11.3km/h 15% 0.00in /  0mm 165.0 W/m2
17:25 90.7 °F /  32.6 °C 36.7 °F /  2.6 °C 29.60in /  1002.3hPa NNW 4.0mph /  6.4km/h 12.0mph /  19.3km/h 15% 0.00in /  0mm 165.0 W/m2
17:30 90.3 °F /  32.4 °C 36.3 °F /  2.4 °C 29.60in /  1002.3hPa NW 2.9mph /  4.7km/h 7.0mph /  11.3km/h 15% 0.00in /  0mm 172.0 W/m2
17:35 90.3 °F /  32.4 °C 36.3 °F /  2.4 °C 29.60in /  1002.3hPa WNW 2.0mph /  3.2km/h 3.0mph /  4.8km/h 15% 0.00in /  0mm 153.0 W/m2
17:40 90.1 °F /  32.3 °C 36.3 °F /  2.4 °C 29.60in /  1002.3hPa WSW 4.0mph /  6.4km/h 7.0mph /  11.3km/h 15% 0.00in /  0mm 148.0 W/m2
17:45 90.1 °F /  32.3 °C 36.3 °F /  2.4 °C 29.60in /  1002.3hPa WNW 2.0mph /  3.2km/h 3.0mph /  4.8km/h 15% 0.00in /  0mm 141.0 W/m2
17:51 90.1 °F /  32.3 °C 36.3 °F /  2.4 °C 29.59in /  1001.9hPa NNW 0.9mph /  1.4km/h 2.0mph /  3.2km/h 15% 0.00in /  0mm 148.0 W/m2
17:56 90.0 °F /  32.2 °C 37.8 °F /  3.2 °C 29.59in /  1001.9hPa NNW 2.9mph /  4.7km/h 5.0mph /  8km/h 16% 0.00in /  0mm 114.0 W/m2
18:02 90.0 °F /  32.2 °C 37.8 °F /  3.2 °C 29.59in /  1001.9hPa WSW 0.9mph /  1.4km/h 2.0mph /  3.2km/h 16% 0.00in /  0mm 109.0 W/m2
18:07 89.8 °F /  32.1 °C 37.6 °F /  3.1 °C 29.59in /  1001.9hPa NNW 2.9mph /  4.7km/h 4.0mph /  6.4km/h 16% 0.00in /  0mm 114.0 W/m2
18:12 89.4 °F /  31.9 °C 35.6 °F /  2 °C 29.60in /  1002.3hPa NNW 4.9mph /  7.9km/h 9.0mph /  14.5km/h 15% 0.00in /  0mm 95.0 W/m2
18:18 89.2 °F /  31.8 °C 35.6 °F /  2 °C 29.60in /  1002.3hPa NNE 2.9mph /  4.7km/h 5.0mph /  8km/h 15% 0.00in /  0mm 90.0 W/m2
18:23 89.1 °F /  31.7 °C 37.0 °F /  2.8 °C 29.60in /  1002.3hPa Calm   4.0mph /  6.4km/h 16% 0.00in /  0mm 90.0 W/m2
18:28 89.1 °F /  31.7 °C 37.0 °F /  2.8 °C 29.60in /  1002.3hPa Calm   1.0mph /  1.6km/h 16% 0.00in /  0mm 172.0 W/m2
18:34 89.1 °F /  31.7 °C 37.0 °F /  2.8 °C 29.60in /  1002.3hPa NW 6.0mph /  9.7km/h 6.0mph /  9.7km/h 16% 0.00in /  0mm 128.0 W/m2
18:39 89.2 °F /  31.8 °C 35.6 °F /  2 °C 29.61in /  1002.6hPa NNW 4.9mph /  7.9km/h 9.0mph /  14.5km/h 15% 0.00in /  0mm 76.0 W/m2
18:44 89.1 °F /  31.7 °C 35.4 °F /  1.9 °C 29.60in /  1002.3hPa North 2.0mph /  3.2km/h 4.0mph /  6.4km/h 15% 0.00in /  0mm 72.0 W/m2
18:49 89.1 °F /  31.7 °C 35.4 °F /  1.9 °C 29.61in /  1002.6hPa Calm   3.0mph /  4.8km/h 15% 0.00in /  0mm 51.0 W/m2
18:54 89.1 °F /  31.7 °C 35.4 °F /  1.9 °C 29.61in /  1002.6hPa NNW 2.9mph /  4.7km/h 8.0mph /  12.9km/h 15% 0.00in /  0mm 53.0 W/m2
18:59 88.9 °F /  31.6 °C 35.2 °F /  1.8 °C 29.61in /  1002.6hPa NNW 2.0mph /  3.2km/h 6.0mph /  9.7km/h 15% 0.00in /  0mm 42.0 W/m2
19:03 88.9 °F /  31.6 °C 35.2 °F /  1.8 °C 29.61in /  1002.6hPa West 0.9mph /  1.4km/h 5.0mph /  8km/h 15% 0.00in /  0mm 39.0 W/m2
19:08 88.7 °F /  31.5 °C 33.4 °F /  0.8 °C 29.61in /  1002.6hPa NNW 4.0mph /  6.4km/h 7.0mph /  11.3km/h 14% 0.00in /  0mm 32.0 W/m2
19:14 88.5 °F /  31.4 °C 33.3 °F /  0.7 °C 29.62in /  1002.9hPa Calm   4.0mph /  6.4km/h 14% 0.00in /  0mm 26.0 W/m2
19:19 88.5 °F /  31.4 °C 33.3 °F /  0.7 °C 29.62in /  1002.9hPa West 2.0mph /  3.2km/h 6.0mph /  9.7km/h 14% 0.00in /  0mm 19.0 W/m2
19:20 88.3 °F /  31.3 °C 33.1 °F /  0.6 °C 29.62in /  1002.9hPa WNW 2.0mph /  3.2km/h 3.0mph /  4.8km/h 14% 0.00in /  0mm 19.0 W/m2
19:25 88.2 °F /  31.2 °C 32.9 °F /  0.5 °C 29.62in /  1002.9hPa WSW 4.0mph /  6.4km/h 9.0mph /  14.5km/h 14% 0.00in /  0mm 14.0 W/m2
19:30 87.3 °F /  30.7 °C 28.4 °F /  -2 °C 29.63in /  1003.3hPa SW 6.0mph /  9.7km/h 13.0mph /  20.9km/h 12% 0.00in /  0mm 11.0 W/m2
19:36 86.2 °F /  30.1 °C 29.7 °F /  -1.3 °C 29.63in /  1003.3hPa South 6.0mph /  9.7km/h 18.0mph /  29km/h 13% 0.00in /  0mm 5.0 W/m2
19:41 85.3 °F /  29.6 °C 28.9 °F /  -1.7 °C 29.64in /  1003.6hPa WSW 8.9mph /  14.3km/h 14.0mph /  22.5km/h 13% 0.00in /  0mm 0.0 W/m2
19:46 84.4 °F /  29.1 °C 28.2 °F /  -2.1 °C 29.64in /  1003.6hPa WSW 4.0mph /  6.4km/h 11.0mph /  17.7km/h 13% 0.00in /  0mm 0.0 W/m2
19:51 83.8 °F /  28.8 °C 27.7 °F /  -2.4 °C 29.65in /  1003.9hPa SSW 4.9mph /  7.9km/h 11.0mph /  17.7km/h 13% 0.00in /  0mm 0.0 W/m2
19:56 83.1 °F /  28.4 °C 28.9 °F /  -1.7 °C 29.65in /  1003.9hPa WNW 6.9mph /  11.1km/h 12.0mph /  19.3km/h 14% 0.00in /  0mm 0.0 W/m2
20:01 82.9 °F /  28.3 °C 28.8 °F /  -1.8 °C 29.65in /  1003.9hPa West 6.0mph /  9.7km/h 9.0mph /  14.5km/h 14% 0.00in /  0mm 0.0 W/m2
20:08 82.6 °F /  28.1 °C 28.6 °F /  -1.9 °C 29.66in /  1004.3hPa WSW 2.9mph /  4.7km/h 8.0mph /  12.9km/h 14% 0.00in /  0mm 0.0 W/m2
20:13 82.2 °F /  27.9 °C 28.2 °F /  -2.1 °C 29.67in /  1004.6hPa WSW 2.9mph /  4.7km/h 5.0mph /  8km/h 14% 0.00in /  0mm 0.0 W/m2
20:14 82.2 °F /  27.9 °C 28.2 °F /  -2.1 °C 29.67in /  1004.6hPa Calm   3.0mph /  4.8km/h 14% 0.00in /  0mm 0.0 W/m2
20:19 82.0 °F /  27.8 °C 29.8 °F /  -1.2 °C 29.68in /  1005hPa NNW 4.0mph /  6.4km/h 6.0mph /  9.7km/h 15% 0.00in /  0mm 0.0 W/m2
20:24 81.9 °F /  27.7 °C 29.7 °F /  -1.3 °C 29.69in /  1005.3hPa NNW 2.9mph /  4.7km/h 7.0mph /  11.3km/h 15% 0.00in /  0mm 0.0 W/m2
20:29 81.3 °F /  27.4 °C 29.3 °F /  -1.5 °C 29.69in /  1005.3hPa NNW 0.9mph /  1.4km/h 4.0mph /  6.4km/h 15% 0.00in /  0mm 0.0 W/m2
20:34 81.1 °F /  27.3 °C 29.1 °F /  -1.6 °C 29.70in /  1005.6hPa Calm   6.0mph /  9.7km/h 15% 0.00in /  0mm 0.0 W/m2
20:39 80.8 °F /  27.1 °C 28.8 °F /  -1.8 °C 29.70in /  1005.6hPa West 2.9mph /  4.7km/h 4.0mph /  6.4km/h 15% 0.00in /  0mm 0.0 W/m2
20:45 80.6 °F /  27 °C 28.8 °F /  -1.8 °C 29.70in /  1005.6hPa West 2.0mph /  3.2km/h 2.0mph /  3.2km/h 15% 0.00in /  0mm 0.0 W/m2
20:48 80.4 °F /  26.9 °C 30.2 °F /  -1 °C 29.71in /  1006hPa WSW 2.0mph /  3.2km/h 3.0mph /  4.8km/h 16% 0.00in /  0mm 0.0 W/m2
20:53 80.2 °F /  26.8 °C 30.0 °F /  -1.1 °C 29.70in /  1005.6hPa WSW 0.9mph /  1.4km/h 4.0mph /  6.4km/h 16% 0.00in /  0mm 0.0 W/m2
20:56 80.2 °F /  26.8 °C 30.0 °F /  -1.1 °C 29.70in /  1005.6hPa WSW 0.9mph /  1.4km/h 2.0mph /  3.2km/h 16% 0.00in /  0mm 0.0 W/m2
21:02 79.9 °F /  26.6 °C 29.7 °F /  -1.3 °C 29.71in /  1006hPa Calm   3.0mph /  4.8km/h 16% 0.00in /  0mm 0.0 W/m2
21:07 79.7 °F /  26.5 °C 29.5 °F /  -1.4 °C 29.71in /  1006hPa SSW 0.9mph /  1.4km/h 5.0mph /  8km/h 16% 0.00in /  0mm 0.0 W/m2
21:12 79.3 °F /  26.3 °C 29.3 °F /  -1.5 °C 29.71in /  1006hPa WSW 2.0mph /  3.2km/h 5.0mph /  8km/h 16% 0.00in /  0mm 0.0 W/m2
21:18 79.2 °F /  26.2 °C 30.6 °F /  -0.8 °C 29.71in /  1006hPa WSW 2.9mph /  4.7km/h 3.0mph /  4.8km/h 17% 0.00in /  0mm 0.0 W/m2
21:23 79.0 °F /  26.1 °C 30.4 °F /  -0.9 °C 29.71in /  1006hPa Calm   3.0mph /  4.8km/h 17% 0.00in /  0mm 0.0 W/m2
21:28 78.6 °F /  25.9 °C 30.2 °F /  -1 °C 29.71in /  1006hPa Calm   1.0mph /  1.6km/h 17% 0.00in /  0mm 0.0 W/m2
21:33 78.4 °F /  25.8 °C 30.0 °F /  -1.1 °C 29.71in /  1006hPa Calm     17% 0.00in /  0mm 0.0 W/m2
21:38 78.3 °F /  25.7 °C 31.3 °F /  -0.4 °C 29.72in /  1006.3hPa Calm   1.0mph /  1.6km/h 18% 0.00in /  0mm 0.0 W/m2
21:44 77.9 °F /  25.5 °C 30.9 °F /  -0.6 °C 29.72in /  1006.3hPa Calm     18% 0.00in /  0mm 0.0 W/m2
21:49 77.7 °F /  25.4 °C 30.9 °F /  -0.6 °C 29.72in /  1006.3hPa Calm     18% 0.00in /  0mm 0.0 W/m2
21:54 77.4 °F /  25.2 °C 30.6 °F /  -0.8 °C 29.72in /  1006.3hPa Calm     18% 0.00in /  0mm 0.0 W/m2
22:00 77.2 °F /  25.1 °C 31.8 °F /  -0.1 °C 29.72in /  1006.3hPa Calm     19% 0.00in /  0mm 0.0 W/m2
22:06 76.8 °F /  24.9 °C 31.5 °F /  -0.3 °C 29.73in /  1006.7hPa Calm     19% 0.00in /  0mm 0.0 W/m2
22:11 76.5 °F /  24.7 °C 31.1 °F /  -0.5 °C 29.73in /  1006.7hPa Calm   1.0mph /  1.6km/h 19% 0.00in /  0mm 0.0 W/m2
22:16 76.3 °F /  24.6 °C 30.9 °F /  -0.6 °C 29.73in /  1006.7hPa Calm     19% 0.00in /  0mm 0.0 W/m2
22:21 75.9 °F /  24.4 °C 32.0 °F /  0 °C 29.73in /  1006.7hPa Calm     20% 0.00in /  0mm 0.0 W/m2
22:25 75.7 °F /  24.3 °C 31.8 °F /  -0.1 °C 29.73in /  1006.7hPa Calm     20% 0.00in /  0mm 0.0 W/m2
22:30 75.6 °F /  24.2 °C 31.6 °F /  -0.2 °C 29.74in /  1007hPa Calm     20% 0.00in /  0mm 0.0 W/m2
22:35 75.4 °F /  24.1 °C 31.5 °F /  -0.3 °C 29.73in /  1006.7hPa Calm     20% 0.00in /  0mm 0.0 W/m2
22:41 75.0 °F /  23.9 °C 31.3 °F /  -0.4 °C 29.74in /  1007hPa Calm   1.0mph /  1.6km/h 20% 0.00in /  0mm 0.0 W/m2
22:47 74.8 °F /  23.8 °C 31.1 °F /  -0.5 °C 29.74in /  1007hPa Calm     20% 0.00in /  0mm 0.0 W/m2
22:52 74.5 °F /  23.6 °C 32.0 °F /  0 °C 29.74in /  1007hPa Calm   1.0mph /  1.6km/h 21% 0.00in /  0mm 0.0 W/m2
22:57 74.3 °F /  23.5 °C 31.8 °F /  -0.1 °C 29.74in /  1007hPa Calm     21% 0.00in /  0mm 0.0 W/m2
23:02 74.1 °F /  23.4 °C 31.6 °F /  -0.2 °C 29.74in /  1007hPa Calm     21% 0.00in /  0mm 0.0 W/m2
23:07 73.8 °F /  23.2 °C 31.5 °F /  -0.3 °C 29.74in /  1007hPa Calm   1.0mph /  1.6km/h 21% 0.00in /  0mm 0.0 W/m2
23:12 73.8 °F /  23.2 °C 31.5 °F /  -0.3 °C 29.74in /  1007hPa Calm     21% 0.00in /  0mm 0.0 W/m2
23:17 73.6 °F /  23.1 °C 32.4 °F /  0.2 °C 29.74in /  1007hPa Calm     22% 0.00in /  0mm 0.0 W/m2
23:20 73.6 °F /  23.1 °C 32.4 °F /  0.2 °C 29.75in /  1007.3hPa Calm     22% 0.00in /  0mm 0.0 W/m2
23:26 73.2 °F /  22.9 °C 32.2 °F /  0.1 °C 29.75in /  1007.3hPa Calm     22% 0.00in /  0mm 0.0 W/m2
23:31 73.2 °F /  22.9 °C 34.3 °F /  1.3 °C 29.75in /  1007.3hPa Calm   1.0mph /  1.6km/h 24% 0.00in /  0mm 0.0 W/m2
23:33 73.2 °F /  22.9 °C 36.3 °F /  2.4 °C 29.75in /  1007.3hPa Calm   2.0mph /  3.2km/h 26% 0.00in /  0mm 0.0 W/m2
23:39 73.2 °F /  22.9 °C 37.2 °F /  2.9 °C 29.75in /  1007.3hPa Calm   2.0mph /  3.2km/h 27% 0.00in /  0mm 0.0 W/m2
23:45 73.6 °F /  23.1 °C 35.6 °F /  2 °C 29.74in /  1007hPa Calm   5.0mph /  8km/h 25% 0.00in /  0mm 0.0 W/m2
23:50 73.8 °F /  23.2 °C 34.7 °F /  1.5 °C 29.74in /  1007hPa NNW 0.9mph /  1.4km/h 3.0mph /  4.8km/h 24% 0.00in /  0mm 0.0 W/m2
23:55 74.1 °F /  23.4 °C 34.0 °F /  1.1 °C 29.74in /  1007hPa Calm   2.0mph /  3.2km/h 23% 0.00in /  0mm 0.0 W/m2
Olympia, Windhoek, Namibia
Compliments of Weather Underground - 3.5 mb